Time;durP1;ratioP1;P1;durP2;ratioP2;P2;SDS_P1;SDS_P2;PMS_P1;PMS_P2;Temp;Humidity;BMP_temperature;BMP_pressure;BME280_temperature;BME280_humidity;BME280_pressure;Samples;Min_cycle;Max_cycle;Signal;HPM_P1;HPM_P2
2023/03/28 00:01:55;;;;;;;;;;;3.70;99.90;;;;;;5093350;28;1195;-69
2023/03/28 00:04:21;;;;;;;;;;;3.70;99.90;;;;;;5111997;28;1103;-69
2023/03/28 00:06:48;;;;;;;;;;;3.60;99.90;;;;;;5111442;28;1323;-69
2023/03/28 00:09:13;;;;;;;;;;;3.60;99.90;;;;;;5111552;28;1156;-69
2023/03/28 00:11:39;;;;;;;;;;;3.60;99.90;;;;;;5111882;28;1310;-69
2023/03/28 00:14:07;;;;;;;;;;;3.40;99.90;;;;;;5111589;28;1108;-69
2023/03/28 00:16:34;;;;;;;;;;;3.40;99.90;;;;;;5111475;28;1075;-69
2023/03/28 00:19:01;;;;;;;;;;;3.30;99.90;;;;;;5112018;28;1913;-69
2023/03/28 00:21:28;;;;;;;;;;;3.50;99.90;;;;;;5112021;28;1080;-69
2023/03/28 00:23:55;;;;;;;;;;;3.20;99.90;;;;;;5110708;28;1173;-69
2023/03/28 00:26:23;;;;;;;;;;;3.10;99.90;;;;;;5112055;28;1147;-69
2023/03/28 00:28:50;;;;;;;;;;;3.00;99.90;;;;;;5092739;28;1101;-69
2023/03/28 00:31:16;;;;;;;;;;;2.90;99.90;;;;;;5111516;28;1120;-69
2023/03/28 00:33:42;;;;;;;;;;;2.70;99.90;;;;;;5111146;28;1148;-69
2023/03/28 00:36:09;;;;;;;;;;;2.70;99.90;;;;;;5110313;28;1160;-69
2023/03/28 00:38:37;;;;;;;;;;;2.60;99.90;;;;;;5085535;27;1975;-69
2023/03/28 00:41:04;;;;;;;;;;;2.40;99.90;;;;;;5098955;28;1266;-69
2023/03/28 00:43:34;;;;;;;;;;;2.30;99.90;;;;;;5110613;28;1294;-69
2023/03/28 00:46:00;;;;;;;;;;;2.20;99.90;;;;;;5133642;27;1310;-69
2023/03/28 00:48:26;;;;;;;;;;;2.10;99.90;;;;;;5098840;28;1087;-69
2023/03/28 00:50:52;;;;;;;;;;;2.10;99.90;;;;;;5091806;28;1186;-69
2023/03/28 00:53:20;;;;;;;;;;;2.10;99.90;;;;;;5093094;28;1121;-69
2023/03/28 00:55:47;;;;;;;;;;;2.20;99.90;;;;;;5111717;28;1081;-69
2023/03/28 00:58:21;;;;;;;;;;;2.10;99.90;;;;;;5109451;28;1980;-69
2023/03/28 01:00:53;;;;;;;;;;;2.20;99.90;;;;;;5093307;28;1128;-69
2023/03/28 01:03:21;;;;;;;;;;;2.20;99.90;;;;;;5092795;28;1252;-69
2023/03/28 01:05:50;;;;;;;;;;;2.10;99.90;;;;;;5092082;28;1307;-69
2023/03/28 01:08:20;;;;;;;;;;;2.20;99.90;;;;;;5092361;28;1116;-69
2023/03/28 01:10:46;;;;;;;;;;;2.20;99.90;;;;;;5110313;28;1096;-69
2023/03/28 01:13:13;;;;;;;;;;;2.10;99.90;;;;;;5110806;28;1301;-69
2023/03/28 01:15:39;;;;;;;;;;;2.10;99.90;;;;;;5092614;28;1004;-69
2023/03/28 01:18:10;;;;;;;;;;;2.10;99.90;;;;;;5109936;28;1917;-69
2023/03/28 01:20:53;;;;;;;;;;;2.10;99.90;;;;;;5110904;28;1080;-69
2023/03/28 01:23:37;;;;;;;;;;;2.10;99.90;;;;;;5110838;28;1244;-69
2023/03/28 01:26:08;;;;;;;;;;;2.00;99.90;;;;;;5091621;28;1172;-69
2023/03/28 01:28:50;;;;;;;;;;;2.00;99.90;;;;;;5092183;28;1498;-69
2023/03/28 01:31:17;;;;;;;;;;;2.20;99.90;;;;;;5092697;28;1088;-69
2023/03/28 01:34:22;;;;;;;;;;;1.90;99.90;;;;;;5109618;28;1155;-69
2023/03/28 01:36:58;;;;;;;;;;;1.90;99.90;;;;;;5071537;28;1947;-69
2023/03/28 01:39:32;;;;;;;;;;;1.90;99.90;;;;;;5112338;27;1914;-69
2023/03/28 01:42:05;;;;;;;;;;;1.90;99.90;;;;;;5092364;27;1112;-69
2023/03/28 01:44:37;;;;;;;;;;;2.00;99.90;;;;;;5126138;27;1594;-69
2023/03/28 01:47:03;;;;;;;;;;;1.90;99.90;;;;;;5109891;28;1218;-69
2023/03/28 01:49:34;;;;;;;;;;;2.00;99.90;;;;;;5091842;28;1100;-69
2023/03/28 01:52:07;;;;;;;;;;;1.90;99.90;;;;;;5109625;28;1128;-69
2023/03/28 01:54:34;;;;;;;;;;;1.90;99.90;;;;;;5109603;28;1140;-69
2023/03/28 01:57:13;;;;;;;;;;;1.90;99.90;;;;;;5092050;28;1083;-69
2023/03/28 01:59:42;;;;;;;;;;;1.90;99.90;;;;;;5091126;28;1910;-69
2023/03/28 02:02:42;;;;;;;;;;;1.80;99.90;;;;;;5100729;28;1250;-69
2023/03/28 02:05:23;;;;;;;;;;;1.80;99.90;;;;;;5091436;28;1330;-69
2023/03/28 02:07:52;;;;;;;;;;;1.80;99.90;;;;;;5090998;28;1144;-69
2023/03/28 02:10:25;;;;;;;;;;;1.80;99.90;;;;;;5090840;28;1193;-69
2023/03/28 02:13:01;;;;;;;;;;;1.80;99.90;;;;;;5091565;28;1298;-69
2023/03/28 02:15:49;;;;;;;;;;;1.80;99.90;;;;;;5109442;28;1073;-70
2023/03/28 02:18:46;;;;;;;;;;;1.80;99.90;;;;;;5090960;28;1922;-69
2023/03/28 02:21:29;;;;;;;;;;;1.80;99.90;;;;;;5090782;28;1164;-69
2023/03/28 02:24:05;;;;;;;;;;;1.70;99.90;;;;;;5091805;28;1116;-69
2023/03/28 02:27:00;;;;;;;;;;;1.80;99.90;;;;;;5101737;28;1457;-69
2023/03/28 02:29:35;;;;;;;;;;;1.80;99.90;;;;;;5091323;28;1125;-69
2023/03/28 02:32:16;;;;;;;;;;;1.70;99.90;;;;;;5091729;28;1140;-69
2023/03/28 02:34:43;;;;;;;;;;;1.80;99.90;;;;;;5091016;28;1111;-69
2023/03/28 02:37:18;;;;;;;;;;;1.70;99.90;;;;;;5128532;27;1193;-70
2023/03/28 02:39:57;;;;;;;;;;;1.70;99.90;;;;;;5091699;28;1947;-69
2023/03/28 02:42:30;;;;;;;;;;;1.70;99.90;;;;;;5095513;28;1235;-69
2023/03/28 02:45:15;;;;;;;;;;;1.70;99.90;;;;;;5111176;28;1627;-69
2023/03/28 02:47:54;;;;;;;;;;;1.70;99.90;;;;;;5101619;28;1224;-69
2023/03/28 02:50:25;;;;;;;;;;;1.60;99.90;;;;;;5090270;28;1085;-69
2023/03/28 02:53:01;;;;;;;;;;;1.50;99.90;;;;;;5091121;28;1148;-69
2023/03/28 02:55:37;;;;;;;;;;;1.50;99.90;;;;;;5109415;28;1091;-69
2023/03/28 02:58:20;;;;;;;;;;;1.50;99.90;;;;;;5089859;28;1933;-69
2023/03/28 03:00:47;;;;;;;;;;;1.50;99.90;;;;;;5091293;28;1121;-69
2023/03/28 03:03:14;;;;;;;;;;;1.40;99.90;;;;;;5079685;28;1320;-69
2023/03/28 03:05:40;;;;;;;;;;;1.40;99.90;;;;;;5108638;28;1326;-69
2023/03/28 03:08:06;;;;;;;;;;;1.30;99.90;;;;;;5109237;28;1101;-69
2023/03/28 03:10:34;;;;;;;;;;;1.40;99.90;;;;;;5089765;28;1211;-69
2023/03/28 03:13:00;;;;;;;;;;;1.50;99.90;;;;;;5090424;28;1435;-69
2023/03/28 03:15:29;;;;;;;;;;;1.60;99.90;;;;;;5091231;28;1116;-69
2023/03/28 03:17:57;;;;;;;;;;;1.70;99.90;;;;;;5073154;28;1910;-69
2023/03/28 03:20:26;;;;;;;;;;;1.70;99.90;;;;;;5097470;28;1211;-69
2023/03/28 03:22:53;;;;;;;;;;;1.90;99.90;;;;;;5091215;28;1111;-69
2023/03/28 03:25:19;;;;;;;;;;;1.60;99.90;;;;;;5112659;28;1171;-69
2023/03/28 03:27:55;;;;;;;;;;;1.70;99.90;;;;;;5094443;28;1377;-69
2023/03/28 03:30:22;;;;;;;;;;;1.90;99.90;;;;;;5094425;28;1110;-69
2023/03/28 03:33:13;;;;;;;;;;;1.70;99.90;;;;;;5077022;28;1164;-69
2023/03/28 03:35:40;;;;;;;;;;;1.70;99.90;;;;;;5094404;28;1122;-69
2023/03/28 03:38:07;;;;;;;;;;;1.70;99.90;;;;;;5094013;28;1979;-69
2023/03/28 03:40:33;;;;;;;;;;;1.70;99.90;;;;;;5094161;28;1120;-69
2023/03/28 03:42:59;;;;;;;;;;;1.60;99.90;;;;;;5128640;27;1335;-69
2023/03/28 03:45:26;;;;;;;;;;;1.80;99.90;;;;;;5094845;28;1124;-69
2023/03/28 03:47:51;;;;;;;;;;;1.70;99.90;;;;;;5076855;28;1138;-69
2023/03/28 03:50:17;;;;;;;;;;;1.50;99.90;;;;;;5094035;28;1254;-69
2023/03/28 03:52:43;;;;;;;;;;;1.50;99.90;;;;;;5094074;28;1156;-69
2023/03/28 03:55:10;;;;;;;;;;;1.50;99.90;;;;;;5077284;28;1148;-69
2023/03/28 03:57:38;;;;;;;;;;;1.50;99.90;;;;;;5076863;28;1975;-69
2023/03/28 04:00:10;;;;;;;;;;;1.50;99.90;;;;;;5093743;28;1109;-69
2023/03/28 04:02:45;;;;;;;;;;;1.40;99.90;;;;;;5112122;28;1085;-69
2023/03/28 04:05:12;;;;;;;;;;;1.40;99.90;;;;;;5085097;28;1433;-69
2023/03/28 04:07:46;;;;;;;;;;;1.40;99.90;;;;;;5093555;28;1144;-69
2023/03/28 04:10:24;;;;;;;;;;;1.30;99.90;;;;;;5099626;28;1208;-69
2023/03/28 04:12:49;;;;;;;;;;;1.30;99.90;;;;;;5104703;28;1338;-69
2023/03/28 04:15:15;;;;;;;;;;;1.20;99.90;;;;;;5093308;28;986;-69
2023/03/28 04:17:59;;;;;;;;;;;1.30;99.90;;;;;;5095897;28;1989;-69
2023/03/28 04:20:28;;;;;;;;;;;1.30;99.90;;;;;;5130307;27;1211;-69
2023/03/28 04:23:04;;;;;;;;;;;1.30;99.90;;;;;;5102034;28;1108;-69
2023/03/28 04:25:30;;;;;;;;;;;1.70;99.90;;;;;;5103288;28;1234;-69
2023/03/28 04:28:02;;;;;;;;;;;1.10;99.90;;;;;;5118788;27;1204;-69
2023/03/28 04:30:34;;;;;;;;;;;1.00;99.90;;;;;;5100174;28;1211;-69
2023/03/28 04:33:24;;;;;;;;;;;1.00;99.90;;;;;;5109977;28;1220;-69
2023/03/28 04:35:55;;;;;;;;;;;1.00;99.90;;;;;;5100223;28;1093;-69
2023/03/28 04:38:25;;;;;;;;;;;1.00;99.90;;;;;;5104685;28;1991;-69
2023/03/28 04:40:57;;;;;;;;;;;1.00;99.90;;;;;;5119847;27;1234;-69
2023/03/28 04:43:43;;;;;;;;;;;0.90;99.90;;;;;;5118402;27;1266;-69
2023/03/28 04:46:09;;;;;;;;;;;1.10;99.90;;;;;;5093259;28;1354;-69
2023/03/28 04:48:35;;;;;;;;;;;0.80;99.90;;;;;;5095106;27;1129;-69
2023/03/28 04:51:01;;;;;;;;;;;0.70;99.90;;;;;;5131138;27;1096;-69
2023/03/28 04:53:27;;;;;;;;;;;0.90;99.90;;;;;;5148042;27;1197;-69
2023/03/28 04:56:13;;;;;;;;;;;0.90;99.90;;;;;;5130954;27;1143;-69
2023/03/28 04:58:40;;;;;;;;;;;0.90;99.90;;;;;;5113249;27;1910;-69
2023/03/28 05:01:09;;;;;;;;;;;0.80;99.90;;;;;;5093579;28;1109;-69
2023/03/28 05:03:55;;;;;;;;;;;0.80;99.90;;;;;;5109432;28;1239;-69
2023/03/28 05:06:21;;;;;;;;;;;0.80;99.90;;;;;;5098868;27;1291;-69
2023/03/28 05:08:48;;;;;;;;;;;0.90;99.90;;;;;;5100980;28;1258;-69
2023/03/28 05:11:14;;;;;;;;;;;0.80;99.90;;;;;;5098596;28;1199;-69
2023/03/28 05:13:40;;;;;;;;;;;0.90;99.90;;;;;;5126568;27;1890;-69
2023/03/28 05:16:15;;;;;;;;;;;0.80;99.90;;;;;;5101074;28;1116;-69
2023/03/28 05:19:01;;;;;;;;;;;0.90;99.90;;;;;;5109729;28;1913;-68
2023/03/28 05:21:47;;;;;;;;;;;0.90;99.90;;;;;;5110693;28;1175;-69
2023/03/28 05:24:12;;;;;;;;;;;0.80;99.90;;;;;;5091544;28;1112;-69
2023/03/28 05:26:38;;;;;;;;;;;0.80;99.90;;;;;;5092491;28;1073;-69
2023/03/28 05:29:05;;;;;;;;;;;0.80;99.90;;;;;;5092720;28;1172;-68
2023/03/28 05:31:31;;;;;;;;;;;0.80;99.90;;;;;;5092127;28;1109;-68
2023/03/28 05:34:13;;;;;;;;;;;0.80;99.90;;;;;;5091498;28;1207;-68
2023/03/28 05:36:45;;;;;;;;;;;0.80;99.90;;;;;;5088747;28;1136;-69
2023/03/28 05:39:20;;;;;;;;;;;0.80;99.90;;;;;;5078696;28;1914;-68
2023/03/28 05:41:46;;;;;;;;;;;0.80;99.90;;;;;;5091857;27;1081;-69
2023/03/28 05:44:12;;;;;;;;;;;0.80;99.90;;;;;;5117403;27;1576;-69
2023/03/28 05:46:58;;;;;;;;;;;0.70;99.90;;;;;;5121324;27;1559;-69
2023/03/28 05:49:23;;;;;;;;;;;0.80;99.90;;;;;;5092233;28;1101;-69
2023/03/28 05:51:52;;;;;;;;;;;0.80;99.90;;;;;;5090628;28;1150;-69
2023/03/28 05:54:18;;;;;;;;;;;0.80;99.90;;;;;;5109464;28;1073;-69
2023/03/28 05:56:43;;;;;;;;;;;0.80;99.90;;;;;;5074835;28;1164;-69
2023/03/28 05:59:09;;;;;;;;;;;1.10;99.90;;;;;;5085325;28;1934;-69
2023/03/28 06:01:38;;;;;;;;;;;0.90;99.90;;;;;;5122687;27;1088;-69
2023/03/28 06:04:05;;;;;;;;;;;0.80;99.90;;;;;;5125530;27;1143;-69
2023/03/28 06:06:33;;;;;;;;;;;0.90;99.90;;;;;;5090921;28;1307;-69
2023/03/28 06:08:59;;;;;;;;;;;0.90;99.90;;;;;;5109656;28;1137;-69
2023/03/28 06:11:26;;;;;;;;;;;0.90;99.90;;;;;;5091207;28;1357;-69
2023/03/28 06:14:05;;;;;;;;;;;0.90;99.90;;;;;;5090803;28;1187;-69
2023/03/28 06:16:31;;;;;;;;;;;0.90;99.90;;;;;;5088183;28;1187;-69
2023/03/28 06:18:58;;;;;;;;;;;0.90;99.90;;;;;;5118615;27;2010;-69
2023/03/28 06:21:24;;;;;;;;;;;0.90;99.90;;;;;;5091043;28;1124;-70
2023/03/28 06:23:50;;;;;;;;;;;0.90;99.90;;;;;;5091464;28;1132;-69
2023/03/28 06:26:23;;;;;;;;;;;1.20;99.90;;;;;;5078290;28;1170;-69
2023/03/28 06:28:50;;;;;;;;;;;1.20;99.90;;;;;;5109392;28;1120;-69
2023/03/28 06:31:20;;;;;;;;;;;1.20;99.90;;;;;;5091483;28;1140;-69
2023/03/28 06:33:46;;;;;;;;;;;1.30;99.90;;;;;;5091430;28;1152;-69
2023/03/28 06:36:12;;;;;;;;;;;1.40;99.90;;;;;;5101339;28;1213;-69
2023/03/28 06:38:38;;;;;;;;;;;1.60;99.90;;;;;;5109442;28;1918;-70
2023/03/28 06:41:04;;;;;;;;;;;1.40;99.90;;;;;;5125374;27;1084;-69
2023/03/28 06:43:30;;;;;;;;;;;1.50;99.90;;;;;;5110638;28;1382;-69
2023/03/28 06:46:06;;;;;;;;;;;1.60;99.90;;;;;;5111537;28;1190;-69
2023/03/28 06:48:32;;;;;;;;;;;1.80;99.90;;;;;;5116349;28;1096;-69
2023/03/28 06:51:27;;;;;;;;;;;1.70;99.90;;;;;;5109402;28;1306;-69
2023/03/28 06:53:53;;;;;;;;;;;1.80;99.90;;;;;;5132483;27;1101;-69
2023/03/28 06:56:25;;;;;;;;;;;2.00;99.90;;;;;;5107450;28;1251;-69
2023/03/28 06:58:51;;;;;;;;;;;2.10;99.90;;;;;;5097146;28;1901;-69
2023/03/28 07:01:22;;;;;;;;;;;2.20;99.90;;;;;;5088931;28;1156;-69
2023/03/28 07:03:53;;;;;;;;;;;2.40;99.90;;;;;;5101700;28;1239;-69
2023/03/28 07:06:24;;;;;;;;;;;2.50;99.90;;;;;;5134336;27;1282;-69
2023/03/28 07:08:49;;;;;;;;;;;2.60;99.90;;;;;;5097322;28;1227;-69
2023/03/28 07:11:19;;;;;;;;;;;2.70;99.90;;;;;;5104150;27;1298;-70
2023/03/28 07:13:48;;;;;;;;;;;3.00;99.90;;;;;;5099518;28;1156;-70
2023/03/28 07:16:14;;;;;;;;;;;3.30;99.90;;;;;;5134080;27;1278;-70
2023/03/28 07:18:41;;;;;;;;;;;3.60;99.90;;;;;;5108089;27;1910;-70
2023/03/28 07:21:10;;;;;;;;;;;3.80;99.90;;;;;;5092627;28;1187;-70
2023/03/28 07:23:38;;;;;;;;;;;3.80;99.90;;;;;;5094272;28;1171;-70
2023/03/28 07:26:05;;;;;;;;;;;4.10;99.90;;;;;;5095047;28;1177;-70
2023/03/28 07:28:31;;;;;;;;;;;4.10;99.90;;;;;;5095737;28;1188;-70
2023/03/28 07:30:59;;;;;;;;;;;4.00;99.90;;;;;;5094071;28;1141;-70
2023/03/28 07:33:25;;;;;;;;;;;4.20;99.90;;;;;;5094674;28;1097;-70
2023/03/28 07:35:51;;;;;;;;;;;4.20;99.90;;;;;;5094363;28;1131;-70
2023/03/28 07:38:19;;;;;;;;;;;4.20;99.90;;;;;;5093630;28;1974;-70
2023/03/28 07:40:51;;;;;;;;;;;4.20;99.90;;;;;;5094761;28;1113;-70
2023/03/28 07:43:17;;;;;;;;;;;4.30;99.90;;;;;;5123207;27;1377;-70
2023/03/28 07:45:43;;;;;;;;;;;4.40;99.90;;;;;;5102393;28;1192;-70
2023/03/28 07:48:09;;;;;;;;;;;4.40;99.90;;;;;;5112621;28;1150;-70
2023/03/28 07:50:35;;;;;;;;;;;4.40;99.90;;;;;;5094645;28;1168;-70
2023/03/28 07:53:01;;;;;;;;;;;4.40;99.90;;;;;;5111508;28;1116;-70
2023/03/28 07:55:35;;;;;;;;;;;4.50;99.90;;;;;;5111468;28;1118;-70
2023/03/28 07:58:03;;;;;;;;;;;4.60;99.90;;;;;;5111007;28;1973;-70
2023/03/28 08:00:31;;;;;;;;;;;4.60;99.90;;;;;;5099921;28;1215;-70
2023/03/28 08:03:18;;;;;;;;;;;4.70;99.90;;;;;;5112344;27;1268;-70
2023/03/28 08:05:50;;;;;;;;;;;4.60;99.90;;;;;;5103739;28;1326;-70
2023/03/28 08:08:17;;;;;;;;;;;4.60;99.90;;;;;;5128508;27;1241;-70
2023/03/28 08:10:45;;;;;;;;;;;4.60;99.90;;;;;;5094068;28;1160;-70
2023/03/28 08:13:11;;;;;;;;;;;4.70;99.90;;;;;;5092437;28;1244;-70
2023/03/28 08:15:36;;;;;;;;;;;4.80;99.90;;;;;;5119666;27;1100;-70
2023/03/28 08:18:02;;;;;;;;;;;5.10;99.90;;;;;;5091530;28;2012;-70
2023/03/28 08:20:28;;;;;;;;;;;5.30;99.90;;;;;;5092664;28;1106;-70
2023/03/28 08:23:07;;;;;;;;;;;5.30;99.90;;;;;;5128043;27;1175;-70
2023/03/28 08:25:43;;;;;;;;;;;5.50;99.90;;;;;;5112234;28;1139;-70
2023/03/28 08:28:10;;;;;;;;;;;5.60;99.90;;;;;;5093163;28;1184;-70
2023/03/28 08:30:36;;;;;;;;;;;5.60;99.90;;;;;;5110975;28;1108;-70
2023/03/28 08:33:03;;;;;;;;;;;5.80;99.90;;;;;;5093086;28;1148;-70
2023/03/28 08:35:31;;;;;;;;;;;5.90;99.90;;;;;;5092530;28;1321;-70
2023/03/28 08:38:00;;;;;;;;;;;6.10;99.90;;;;;;5064590;28;1979;-70
2023/03/28 08:40:27;;;;;;;;;;;6.10;99.90;;;;;;5110714;28;1443;-70
2023/03/28 08:43:03;;;;;;;;;;;6.40;99.90;;;;;;5126664;27;1473;-70
2023/03/28 08:45:36;;;;;;;;;;;6.60;99.90;;;;;;5093275;28;1061;-70
2023/03/28 08:48:12;;;;;;;;;;;6.70;99.90;;;;;;5092563;28;1007;-70
2023/03/28 08:50:43;;;;;;;;;;;6.90;99.90;;;;;;5093390;28;1029;-70
2023/03/28 08:53:22;;;;;;;;;;;7.10;99.90;;;;;;5111333;28;1092;-70
2023/03/28 08:55:48;;;;;;;;;;;6.90;99.90;;;;;;5092045;28;1172;-70
2023/03/28 08:58:20;;;;;;;;;;;6.80;99.90;;;;;;5126854;27;2009;-70
2023/03/28 09:00:47;;;;;;;;;;;7.00;99.90;;;;;;5111164;28;1120;-70
2023/03/28 09:03:14;;;;;;;;;;;7.00;99.90;;;;;;5110567;28;1109;-70
2023/03/28 09:05:46;;;;;;;;;;;7.00;99.90;;;;;;5092453;28;1362;-70
2023/03/28 09:08:20;;;;;;;;;;;7.00;99.90;;;;;;5123949;27;1120;-70
2023/03/28 09:10:54;;;;;;;;;;;7.00;99.90;;;;;;5092416;28;1233;-70
2023/03/28 09:13:20;;;;;;;;;;;6.80;99.90;;;;;;5092243;28;1317;-70
2023/03/28 09:15:54;;;;;;;;;;;6.80;99.90;;;;;;5126616;27;1115;-70
2023/03/28 09:18:39;;;;;;;;;;;7.00;99.90;;;;;;5126117;27;1914;-70
2023/03/28 09:21:12;;;;;;;;;;;7.10;99.90;;;;;;5092820;28;1145;-70
2023/03/28 09:23:48;;;;;;;;;;;7.20;99.90;;;;;;5091009;28;1212;-70
2023/03/28 09:26:33;;;;;;;;;;;7.00;99.90;;;;;;5111020;28;968;-70
2023/03/28 09:29:09;;;;;;;;;;;6.90;99.90;;;;;;5092392;28;1117;-70
2023/03/28 09:31:38;;;;;;;;;;;6.70;99.90;;;;;;5091595;28;1201;-70
2023/03/28 09:34:05;;;;;;;;;;;6.50;99.90;;;;;;5091974;28;1076;-70
2023/03/28 09:36:42;;;;;;;;;;;6.40;99.90;;;;;;5088516;28;1397;-70
2023/03/28 09:39:33;;;;;;;;;;;6.20;99.90;;;;;;5108674;28;1974;-70
2023/03/28 09:41:59;;;;;;;;;;;6.10;99.90;;;;;;5093522;27;1150;-70
2023/03/28 09:45:04;;;;;;;;;;;6.20;99.90;;;;;;5110603;27;1662;-70
2023/03/28 09:47:48;;;;;;;;;;;6.20;99.90;;;;;;5110504;28;1168;-70
2023/03/28 09:50:17;;;;;;;;;;;6.30;99.90;;;;;;5105785;27;1112;-70
2023/03/28 09:52:48;;;;;;;;;;;6.40;99.90;;;;;;5094421;27;1124;-70
2023/03/28 09:55:16;;;;;;;;;;;6.50;99.90;;;;;;5130828;27;1115;-70
2023/03/28 09:57:58;;;;;;;;;;;6.60;99.90;;;;;;5095272;28;1961;-70
2023/03/28 10:00:24;;;;;;;;;;;6.60;99.90;;;;;;5091147;28;1262;-70
2023/03/28 10:03:31;;;;;;;;;;;6.60;99.90;;;;;;5109771;28;1244;-70
2023/03/28 10:06:15;;;;;;;;;;;6.60;99.90;;;;;;5091025;28;1311;-70
2023/03/28 10:08:41;;;;;;;;;;;6.70;99.90;;;;;;5109660;28;1216;-69
2023/03/28 10:11:21;;;;;;;;;;;6.80;99.90;;;;;;5091615;28;1341;-70
2023/03/28 10:13:49;;;;;;;;;;;6.90;99.90;;;;;;5091038;28;1160;-70
2023/03/28 10:16:21;;;;;;;;;;;7.20;99.90;;;;;;5113077;27;1194;-70
2023/03/28 10:18:55;;;;;;;;;;;7.30;99.90;;;;;;5112183;27;1910;-70
2023/03/28 10:21:46;;;;;;;;;;;7.70;99.90;;;;;;5145245;27;1526;-70
2023/03/28 10:24:15;;;;;;;;;;;8.30;98.80;;;;;;5143666;27;1154;-70
2023/03/28 10:26:46;;;;;;;;;;;8.70;97.00;;;;;;5090841;28;1108;-70
2023/03/28 10:29:12;;;;;;;;;;;9.00;98.20;;;;;;5074139;28;1092;-70
2023/03/28 10:31:45;;;;;;;;;;;8.90;96.70;;;;;;5109471;28;1108;-70
2023/03/28 10:34:30;;;;;;;;;;;8.30;96.40;;;;;;5103096;28;1186;-70
2023/03/28 10:37:22;;;;;;;;;;;8.00;98.60;;;;;;5089034;28;1183;-70
2023/03/28 10:39:58;;;;;;;;;;;7.50;95.90;;;;;;5091296;28;1914;-70
2023/03/28 10:42:56;;;;;;;;;;;7.20;98.10;;;;;;5098704;28;1346;-70
2023/03/28 10:45:43;;;;;;;;;;;7.00;99.10;;;;;;5090961;28;1293;-70
2023/03/28 10:48:12;;;;;;;;;;;7.40;99.90;;;;;;5090393;28;1316;-70
2023/03/28 10:50:43;;;;;;;;;;;8.40;96.00;;;;;;5090422;28;1120;-70
2023/03/28 10:53:09;;;;;;;;;;;8.90;97.20;;;;;;5090861;28;1116;-70
2023/03/28 10:55:39;;;;;;;;;;;9.10;95.70;;;;;;5073829;28;1149;-70
2023/03/28 10:58:14;;;;;;;;;;;8.70;94.00;;;;;;5090788;28;1977;-70
2023/03/28 11:00:55;;;;;;;;;;;8.90;93.90;;;;;;5088907;28;1520;-70
2023/03/28 11:03:39;;;;;;;;;;;8.70;93.90;;;;;;5089992;28;1222;-70
2023/03/28 11:06:14;;;;;;;;;;;8.40;93.10;;;;;;5090858;28;1320;-70
2023/03/28 11:08:46;;;;;;;;;;;8.10;95.00;;;;;;5089963;28;1236;-70
2023/03/28 11:11:28;;;;;;;;;;;7.90;96.70;;;;;;5125291;28;1282;-70
2023/03/28 11:13:59;;;;;;;;;;;7.50;95.20;;;;;;5108917;28;1217;-70
2023/03/28 11:16:32;;;;;;;;;;;7.50;97.90;;;;;;5090403;28;1155;-70
2023/03/28 11:19:31;;;;;;;;;;;7.60;96.90;;;;;;5073501;28;1914;-70
2023/03/28 11:22:13;;;;;;;;;;;7.60;97.00;;;;;;5090553;28;1172;-70
2023/03/28 11:24:40;;;;;;;;;;;7.60;99.40;;;;;;5090398;28;1085;-70
2023/03/28 11:27:21;;;;;;;;;;;7.30;96.30;;;;;;5090198;28;1253;-70
2023/03/28 11:30:02;;;;;;;;;;;7.20;98.60;;;;;;5090361;28;1144;-70
2023/03/28 11:32:41;;;;;;;;;;;7.20;99.90;;;;;;5090725;28;1164;-70
2023/03/28 11:35:10;;;;;;;;;;;7.10;99.50;;;;;;5090094;28;1075;-70
2023/03/28 11:37:41;;;;;;;;;;;7.20;99.50;;;;;;5112519;28;1190;-70
2023/03/28 11:40:15;;;;;;;;;;;7.10;99.90;;;;;;5090970;28;1081;-70
2023/03/28 11:42:55;;;;;;;;;;;7.10;99.90;;;;;;5090794;28;1331;-70
2023/03/28 11:45:24;;;;;;;;;;;7.50;98.90;;;;;;5107590;27;1152;-70
2023/03/28 11:47:51;;;;;;;;;;;7.90;98.40;;;;;;5115095;27;1164;-70
2023/03/28 11:50:22;;;;;;;;;;;8.30;97.60;;;;;;5114566;27;1160;-70
2023/03/28 11:53:03;;;;;;;;;;;8.60;98.80;;;;;;5109522;28;1100;-70
2023/03/28 11:55:38;;;;;;;;;;;8.70;97.40;;;;;;5081695;28;1113;-70
2023/03/28 11:58:19;;;;;;;;;;;8.40;99.20;;;;;;5092883;28;2024;-70
2023/03/28 12:00:47;;;;;;;;;;;8.20;97.80;;;;;;5094302;28;1164;-71
2023/03/28 12:03:22;;;;;;;;;;;8.30;99.00;;;;;;5106049;28;1245;-69
2023/03/28 12:05:56;;;;;;;;;;;8.40;98.00;;;;;;5075977;28;1379;-69
2023/03/28 12:08:25;;;;;;;;;;;8.80;96.60;;;;;;5094348;28;1159;-70
2023/03/28 12:10:52;;;;;;;;;;;8.90;95.50;;;;;;5076885;28;1133;-70
2023/03/28 12:13:31;;;;;;;;;;;9.30;95.70;;;;;;5074855;28;1200;-69
2023/03/28 12:16:05;;;;;;;;;;;10.00;94.80;;;;;;5094014;28;1089;-70
2023/03/28 12:18:40;;;;;;;;;;;10.40;93.00;;;;;;5094035;28;1917;-70
2023/03/28 12:21:16;;;;;;;;;;;10.50;89.40;;;;;;5092452;28;1177;-70
2023/03/28 12:23:55;;;;;;;;;;;10.20;86.70;;;;;;5093846;28;1160;-70
2023/03/28 12:26:39;;;;;;;;;;;9.90;91.30;;;;;;5061407;28;1193;-70
2023/03/28 12:29:14;;;;;;;;;;;9.50;91.90;;;;;;5085761;28;1124;-70
2023/03/28 12:31:41;;;;;;;;;;;9.30;92.40;;;;;;5093836;28;1202;-70
2023/03/28 12:34:20;;;;;;;;;;;8.90;89.50;;;;;;5092470;28;1121;-70
2023/03/28 12:37:21;;;;;;;;;;;8.80;92.60;;;;;;5110727;28;1334;-70
2023/03/28 12:39:55;;;;;;;;;;;9.50;94.70;;;;;;5093447;28;1902;-70
2023/03/28 12:42:27;;;;;;;;;;;9.80;91.60;;;;;;5116534;27;1170;-70
2023/03/28 12:44:57;;;;;;;;;;;9.90;93.90;;;;;;5112000;27;1631;-70
2023/03/28 12:47:26;;;;;;;;;;;10.40;93.20;;;;;;5092130;28;1132;-70
2023/03/28 12:49:57;;;;;;;;;;;11.10;90.20;;;;;;5111035;28;1248;-70
2023/03/28 12:52:25;;;;;;;;;;;11.50;85.30;;;;;;5093471;28;1105;-70
2023/03/28 12:55:03;;;;;;;;;;;11.50;79.20;;;;;;5091699;28;989;-70
2023/03/28 12:57:39;;;;;;;;;;;11.70;77.60;;;;;;5092727;28;1594;-70
2023/03/28 13:00:13;;;;;;;;;;;12.30;78.10;;;;;;5092915;28;1906;-70
2023/03/28 13:03:21;;;;;;;;;;;12.70;76.10;;;;;;5092102;28;1195;-70
2023/03/28 13:05:55;;;;;;;;;;;11.70;70.60;;;;;;5110811;28;2180;-70
2023/03/28 13:08:45;;;;;;;;;;;11.10;78.80;;;;;;5110879;28;1104;-70
2023/03/28 13:11:19;;;;;;;;;;;11.00;73.60;;;;;;5092448;28;2220;-70
2023/03/28 13:13:52;;;;;;;;;;;11.00;78.60;;;;;;5104504;28;1131;-70
2023/03/28 13:16:23;;;;;;;;;;;11.30;74.40;;;;;;5092107;28;1085;-70
2023/03/28 13:19:05;;;;;;;;;;;11.20;68.60;;;;;;5110852;28;1909;-70
2023/03/28 13:21:50;;;;;;;;;;;11.20;70.80;;;;;;5092476;28;1137;-70
2023/03/28 13:24:25;;;;;;;;;;;10.60;73.80;;;;;;5110134;28;1276;-70
2023/03/28 13:27:09;;;;;;;;;;;10.30;73.30;;;;;;5092341;28;1120;-70
2023/03/28 13:29:43;;;;;;;;;;;10.90;79.70;;;;;;5110205;28;1077;-70
2023/03/28 13:32:12;;;;;;;;;;;10.80;78.20;;;;;;5110300;28;1165;-70
2023/03/28 13:34:37;;;;;;;;;;;10.50;78.00;;;;;;5092203;28;1126;-70
2023/03/28 13:37:17;;;;;;;;;;;10.50;87.10;;;;;;5109985;28;1171;-70
2023/03/28 13:39:48;;;;;;;;;;;10.80;85.20;;;;;;5101387;28;1913;-70
2023/03/28 13:42:29;;;;;;;;;;;10.70;83.10;;;;;;5110852;27;1140;-70
2023/03/28 13:44:57;;;;;;;;;;;10.00;80.40;;;;;;5111038;27;1595;-70
2023/03/28 13:47:29;;;;;;;;;;;9.70;85.10;;;;;;5110673;28;1104;-70
2023/03/28 13:50:02;;;;;;;;;;;9.50;86.80;;;;;;5132015;27;1797;-70
2023/03/28 13:52:27;;;;;;;;;;;9.60;88.10;;;;;;5091183;28;1121;-70
2023/03/28 13:55:00;;;;;;;;;;;9.80;87.90;;;;;;5110285;28;1155;-70
2023/03/28 13:57:26;;;;;;;;;;;9.70;86.50;;;;;;5108921;28;1173;-69
2023/03/28 13:59:57;;;;;;;;;;;9.10;81.50;;;;;;5125906;27;1984;-69
2023/03/28 14:02:29;;;;;;;;;;;9.10;84.80;;;;;;5110184;28;1284;-69
2023/03/28 14:04:56;;;;;;;;;;;8.90;83.90;;;;;;5108988;28;1175;-69
2023/03/28 14:07:22;;;;;;;;;;;8.60;83.50;;;;;;5109065;28;1671;-69
2023/03/28 14:09:49;;;;;;;;;;;8.80;83.50;;;;;;5110297;28;1012;-69
2023/03/28 14:12:16;;;;;;;;;;;8.80;83.10;;;;;;5108859;28;1286;-69
2023/03/28 14:14:44;;;;;;;;;;;8.50;84.50;;;;;;5093870;27;1145;-69
2023/03/28 14:17:12;;;;;;;;;;;8.40;85.10;;;;;;5109447;27;1206;-69
2023/03/28 14:19:40;;;;;;;;;;;8.30;84.20;;;;;;5095657;28;1918;-69
2023/03/28 14:22:07;;;;;;;;;;;8.50;88.60;;;;;;5109473;28;1203;-69
2023/03/28 14:24:33;;;;;;;;;;;8.70;89.30;;;;;;5112185;28;1251;-69
2023/03/28 14:27:04;;;;;;;;;;;9.00;90.00;;;;;;5108962;28;1171;-70
2023/03/28 14:29:30;;;;;;;;;;;9.60;92.00;;;;;;5109982;28;1163;-70
2023/03/28 14:31:55;;;;;;;;;;;10.20;90.60;;;;;;5109053;28;1116;-70
2023/03/28 14:34:29;;;;;;;;;;;10.50;88.40;;;;;;5108689;28;1221;-70
2023/03/28 14:37:00;;;;;;;;;;;9.80;82.00;;;;;;5109513;28;1164;-69
2023/03/28 14:39:28;;;;;;;;;;;9.30;88.10;;;;;;5096681;28;1973;-69
2023/03/28 14:41:54;;;;;;;;;;;9.00;90.80;;;;;;5108284;28;1128;-69
2023/03/28 14:44:20;;;;;;;;;;;8.70;90.40;;;;;;5109358;28;1588;-69
2023/03/28 14:46:48;;;;;;;;;;;8.30;92.10;;;;;;5108847;28;1093;-69
2023/03/28 14:49:17;;;;;;;;;;;8.20;93.20;;;;;;5109244;28;1096;-69
2023/03/28 14:51:45;;;;;;;;;;;8.00;93.20;;;;;;5109031;28;1122;-69
2023/03/28 14:54:13;;;;;;;;;;;8.00;98.20;;;;;;5094686;28;1224;-69
2023/03/28 14:56:39;;;;;;;;;;;7.90;95.90;;;;;;5108861;28;1112;-69
2023/03/28 14:59:06;;;;;;;;;;;8.10;96.30;;;;;;5108308;28;1988;-69
2023/03/28 15:01:32;;;;;;;;;;;8.00;92.60;;;;;;5107170;28;1196;-69
2023/03/28 15:04:00;;;;;;;;;;;7.90;91.50;;;;;;5132125;27;1304;-69
2023/03/28 15:06:28;;;;;;;;;;;7.80;95.50;;;;;;5113930;28;1278;-69
2023/03/28 15:08:56;;;;;;;;;;;7.70;92.80;;;;;;5089710;28;1110;-69
2023/03/28 15:11:25;;;;;;;;;;;7.60;94.10;;;;;;5108848;28;1286;-69
2023/03/28 15:14:02;;;;;;;;;;;7.60;93.20;;;;;;5109481;28;1179;-69